createdAt,value
2019-01-04T00:00:18.324Z,7.87
2019-01-04T00:02:46.619Z,5.13
2019-01-04T00:05:14.874Z,6.77
2019-01-04T00:07:43.257Z,6.40
2019-01-04T00:10:11.522Z,5.73
2019-01-04T00:12:39.833Z,6.17
2019-01-04T00:15:08.198Z,7.03
2019-01-04T00:17:36.736Z,6.43
2019-01-04T00:20:06.835Z,4.23
2019-01-04T00:22:35.318Z,3.53
2019-01-04T00:25:05.137Z,7.10
2019-01-04T00:27:33.652Z,6.57
2019-01-04T00:30:01.955Z,7.77
2019-01-04T00:32:30.439Z,6.67
2019-01-04T00:34:58.746Z,13.53
2019-01-04T00:37:27.087Z,6.80
2019-01-04T00:39:55.544Z,8.73
2019-01-04T00:42:23.831Z,6.90
2019-01-04T00:44:52.309Z,6.73
2019-01-04T00:47:20.663Z,6.10
2019-01-04T00:49:49.056Z,5.47
2019-01-04T00:52:17.575Z,6.53
2019-01-04T00:54:45.991Z,5.83
2019-01-04T00:57:32.385Z,7.03
2019-01-04T01:00:30.099Z,5.10
2019-01-04T01:03:07.360Z,9.53
2019-01-04T01:06:11.888Z,5.67
2019-01-04T01:09:18.696Z,4.10
2019-01-04T01:12:02.323Z,7.77
2019-01-04T01:14:36.736Z,5.90
2019-01-04T01:17:37.848Z,5.70
2019-01-04T01:20:41.447Z,6.73
2019-01-04T01:23:35.710Z,4.80
2019-01-04T01:26:25.843Z,11.30
2019-01-04T01:29:12.726Z,6.23
2019-01-04T01:31:55.718Z,5.57
2019-01-04T01:34:44.085Z,6.20
2019-01-04T01:37:36.939Z,5.43
2019-01-04T01:40:22.797Z,11.07
2019-01-04T01:43:16.910Z,7.57
2019-01-04T01:45:57.326Z,6.17
2019-01-04T01:48:27.960Z,10.27
2019-01-04T01:50:59.633Z,6.10
2019-01-04T01:53:37.182Z,9.23
2019-01-04T01:56:05.570Z,7.37
2019-01-04T01:58:33.871Z,6.40
2019-01-04T02:01:02.392Z,6.20
2019-01-04T02:03:30.692Z,7.37
2019-01-04T02:05:58.978Z,8.23
2019-01-04T02:08:27.451Z,6.23
2019-01-04T02:10:55.782Z,7.30
2019-01-04T02:13:24.262Z,11.87
2019-01-04T02:15:52.634Z,4.33
2019-01-04T02:18:20.930Z,9.07
2019-01-04T02:20:49.273Z,6.73
2019-01-04T02:23:17.566Z,8.50
2019-01-04T02:25:45.838Z,8.30
2019-01-04T02:28:14.301Z,8.97
2019-01-04T02:30:42.737Z,11.17
2019-01-04T02:33:11.186Z,9.37
2019-01-04T02:35:39.704Z,6.37
2019-01-04T02:38:08.182Z,8.87
2019-01-04T02:40:36.620Z,7.67
2019-01-04T02:43:04.899Z,12.07
2019-01-04T02:45:33.345Z,9.63
2019-01-04T02:48:01.626Z,7.27
2019-01-04T02:50:30.047Z,8.50
2019-01-04T02:52:58.341Z,8.83
2019-01-04T02:55:26.797Z,8.67
2019-01-04T02:57:55.233Z,7.80
2019-01-04T03:00:23.550Z,8.67
2019-01-04T03:02:51.837Z,6.53
2019-01-04T03:05:20.328Z,8.50
2019-01-04T03:07:48.794Z,10.27
2019-01-04T03:10:17.167Z,7.07
2019-01-04T03:12:45.551Z,8.00
2019-01-04T03:15:13.852Z,6.77
2019-01-04T03:17:42.585Z,11.13
2019-01-04T03:20:10.984Z,7.40
2019-01-04T03:22:39.313Z,8.17
2019-01-04T03:25:07.636Z,9.73
2019-01-04T03:27:35.970Z,6.47
2019-01-04T03:30:05.444Z,9.03
2019-01-04T03:32:33.816Z,9.20
2019-01-04T03:35:02.179Z,9.23
2019-01-04T03:37:30.665Z,10.33
2019-01-04T03:39:59.252Z,8.17
2019-01-04T03:42:27.730Z,8.33
2019-01-04T03:44:56.927Z,10.57
2019-01-04T03:47:25.245Z,10.13
2019-01-04T03:49:53.529Z,8.43
2019-01-04T03:52:21.839Z,7.97
2019-01-04T03:54:50.102Z,7.43
2019-01-04T03:57:18.595Z,10.07
2019-01-04T03:59:49.920Z,9.40
2019-01-04T04:02:18.477Z,12.37
2019-01-04T04:04:46.776Z,12.90
2019-01-04T04:07:15.296Z,12.13
2019-01-04T04:09:43.647Z,10.00
2019-01-04T04:12:12.119Z,8.70
2019-01-04T04:14:40.426Z,8.03
2019-01-04T04:17:08.775Z,13.23
2019-01-04T04:19:37.347Z,10.10
2019-01-04T04:22:05.855Z,10.57
2019-01-04T04:24:34.174Z,10.60
2019-01-04T04:27:02.516Z,9.70
2019-01-04T04:29:30.828Z,8.80
2019-01-04T04:31:59.181Z,10.97
2019-01-04T04:34:27.487Z,9.53
2019-01-04T04:36:55.771Z,10.33
2019-01-04T04:39:24.078Z,10.73
2019-01-04T04:41:52.543Z,10.83
2019-01-04T04:44:20.927Z,9.00
2019-01-04T04:46:49.265Z,9.23
2019-01-04T04:49:17.637Z,9.03
2019-01-04T04:51:45.915Z,11.63
2019-01-04T04:54:14.411Z,9.63
2019-01-04T04:56:42.844Z,12.97
2019-01-04T04:59:11.347Z,8.87
2019-01-04T05:01:39.660Z,10.83
2019-01-04T05:04:08.000Z,8.70
2019-01-04T05:06:36.314Z,10.20
2019-01-04T05:09:06.271Z,8.37
2019-01-04T05:11:34.734Z,10.47
2019-01-04T05:14:03.477Z,14.23
2019-01-04T05:16:38.315Z,9.37
2019-01-04T05:19:06.747Z,8.20
2019-01-04T05:21:35.232Z,11.50
2019-01-04T05:24:03.611Z,10.17
2019-01-04T05:26:31.987Z,11.33
2019-01-04T05:29:00.247Z,8.57
2019-01-04T05:31:28.584Z,10.23
2019-01-04T05:33:56.866Z,11.67
2019-01-04T05:36:25.285Z,10.00
2019-01-04T05:38:54.061Z,10.13
2019-01-04T05:41:22.436Z,12.70
2019-01-04T05:43:51.095Z,9.73
2019-01-04T05:46:19.379Z,11.43
2019-01-04T05:48:47.681Z,12.70
2019-01-04T05:51:16.312Z,15.83
2019-01-04T05:53:44.729Z,13.30
2019-01-04T05:56:13.278Z,10.70
2019-01-04T05:58:41.580Z,17.03
2019-01-04T06:01:09.848Z,11.53
2019-01-04T06:03:38.578Z,13.33
2019-01-04T06:06:06.868Z,13.53
2019-01-04T06:08:35.199Z,16.33
2019-01-04T06:11:03.657Z,14.50
2019-01-04T06:13:31.955Z,12.03
2019-01-04T06:16:00.328Z,11.00
2019-01-04T06:18:28.759Z,10.10
2019-01-04T06:20:57.026Z,11.87
2019-01-04T06:23:25.545Z,13.63
2019-01-04T06:25:53.825Z,14.33
2019-01-04T06:28:22.260Z,12.77
2019-01-04T06:30:50.573Z,12.97
2019-01-04T06:33:19.156Z,12.73
2019-01-04T06:35:47.522Z,14.00
2019-01-04T06:38:15.892Z,15.10
2019-01-04T06:40:44.554Z,15.10
2019-01-04T06:43:12.839Z,14.63
2019-01-04T06:45:41.140Z,15.17
2019-01-04T06:48:09.485Z,16.20
2019-01-04T06:50:37.842Z,15.77
2019-01-04T06:53:06.281Z,18.63
2019-01-04T06:55:50.177Z,16.27
2019-01-04T06:58:18.559Z,16.93
2019-01-04T07:00:46.871Z,13.53
2019-01-04T07:03:15.299Z,17.03
2019-01-04T07:05:43.781Z,15.70
2019-01-04T07:08:12.214Z,12.67
2019-01-04T07:10:40.606Z,14.27
2019-01-04T07:13:08.915Z,19.43
2019-01-04T07:15:37.317Z,22.77
2019-01-04T07:18:05.752Z,18.30
2019-01-04T07:20:34.087Z,21.17
2019-01-04T07:23:02.559Z,17.37
2019-01-04T07:25:30.885Z,18.87
2019-01-04T07:27:59.203Z,13.00
2019-01-04T07:30:27.542Z,14.70
2019-01-04T07:32:56.014Z,15.30
2019-01-04T07:35:24.451Z,19.40
2019-01-04T07:37:52.840Z,16.20
2019-01-04T07:40:21.143Z,13.57
2019-01-04T07:42:49.520Z,16.83
2019-01-04T07:45:18.049Z,15.57
2019-01-04T07:47:46.410Z,17.93
2019-01-04T07:50:14.759Z,17.20
2019-01-04T07:52:43.056Z,17.30
2019-01-04T07:55:11.507Z,14.87
2019-01-04T07:57:39.963Z,15.97
2019-01-04T08:00:11.290Z,15.57
2019-01-04T08:02:41.634Z,15.37
2019-01-04T08:05:12.636Z,15.00
2019-01-04T08:07:41.086Z,17.10
2019-01-04T08:10:09.655Z,19.27
2019-01-04T08:12:37.979Z,17.20
2019-01-04T08:15:08.717Z,19.73
2019-01-04T08:17:37.194Z,18.77
2019-01-04T08:20:07.812Z,15.67
2019-01-04T08:22:36.266Z,18.33
2019-01-04T08:25:05.651Z,17.73
2019-01-04T08:27:34.146Z,19.20
2019-01-04T08:30:02.551Z,19.97
2019-01-04T08:32:38.499Z,21.23
2019-01-04T08:35:06.917Z,16.20
2019-01-04T08:37:35.214Z,16.27
2019-01-04T08:40:04.024Z,18.20
2019-01-04T08:42:32.329Z,20.03
2019-01-04T08:45:00.881Z,21.13
2019-01-04T08:47:29.408Z,17.83
2019-01-04T08:49:57.899Z,17.40
2019-01-04T08:52:26.252Z,15.83
2019-01-04T08:54:54.603Z,21.63
2019-01-04T08:57:25.515Z,18.03
2019-01-04T08:59:53.827Z,22.77
2019-01-04T09:02:22.242Z,19.40
2019-01-04T09:04:50.561Z,16.53
2019-01-04T09:07:18.882Z,13.90
2019-01-04T09:09:47.202Z,15.47
2019-01-04T09:12:15.742Z,18.40
2019-01-04T09:14:44.079Z,18.43
2019-01-04T09:17:12.571Z,16.73
2019-01-04T09:19:40.910Z,15.67
2019-01-04T09:22:09.302Z,13.50
2019-01-04T09:24:37.567Z,18.43
2019-01-04T09:27:05.933Z,17.73
2019-01-04T09:29:34.501Z,15.40
2019-01-04T09:32:02.881Z,12.63
2019-01-04T09:34:31.214Z,20.97
2019-01-04T09:36:59.509Z,16.20
2019-01-04T09:39:28.009Z,19.10
2019-01-04T09:41:57.764Z,16.13
2019-01-04T09:44:26.037Z,14.07
2019-01-04T09:46:54.477Z,20.20
2019-01-04T09:49:22.935Z,17.03
2019-01-04T09:51:51.478Z,13.53
2019-01-04T09:54:19.865Z,15.23
2019-01-04T09:56:48.207Z,14.07
2019-01-04T09:59:16.505Z,14.00
2019-01-04T10:01:45.056Z,13.57
2019-01-04T10:04:13.529Z,11.70
2019-01-04T10:06:41.824Z,10.73
2019-01-04T10:09:10.327Z,13.63
2019-01-04T10:11:38.813Z,12.47
2019-01-04T10:14:07.902Z,11.67
2019-01-04T10:16:36.429Z,13.00
2019-01-04T10:19:04.939Z,12.53
2019-01-04T10:21:33.303Z,12.17
2019-01-04T10:24:01.781Z,11.70
2019-01-04T10:26:30.516Z,13.43
2019-01-04T10:28:59.194Z,11.93
2019-01-04T10:31:27.765Z,9.77
2019-01-04T10:33:56.350Z,12.87
2019-01-04T10:36:24.935Z,11.37
2019-01-04T10:38:53.303Z,10.93
2019-01-04T10:41:21.922Z,11.83
2019-01-04T10:43:50.494Z,11.37
2019-01-04T10:46:19.157Z,12.53
2019-01-04T10:48:47.844Z,12.97
2019-01-04T10:51:16.342Z,9.40
2019-01-04T10:53:44.782Z,9.03
2019-01-04T10:56:13.290Z,8.17
2019-01-04T10:58:42.069Z,10.03
2019-01-04T11:01:10.383Z,11.23
2019-01-04T11:03:38.645Z,12.63
2019-01-04T11:06:06.950Z,10.60
2019-01-04T11:08:35.597Z,11.10
2019-01-04T11:11:05.250Z,12.17
2019-01-04T11:13:33.512Z,10.77
2019-01-04T11:16:01.825Z,10.40
2019-01-04T11:18:30.359Z,10.20
2019-01-04T11:20:59.039Z,11.00
2019-01-04T11:23:53.414Z,7.43
2019-01-04T11:26:28.097Z,8.43
2019-01-04T11:29:27.353Z,8.70
2019-01-04T11:32:10.685Z,8.83
2019-01-04T11:34:53.469Z,7.63
2019-01-04T11:37:40.361Z,9.50
2019-01-04T11:40:36.317Z,8.13
2019-01-04T11:43:14.336Z,7.47
2019-01-04T11:45:55.153Z,4.60
2019-01-04T11:48:50.780Z,6.67
2019-01-04T11:51:46.422Z,7.87
2019-01-04T11:54:15.036Z,6.17
2019-01-04T11:56:43.418Z,5.07
2019-01-04T11:59:12.031Z,7.57
2019-01-04T12:01:40.411Z,7.43
2019-01-04T12:04:08.745Z,6.37
2019-01-04T12:06:37.190Z,3.53
2019-01-04T12:09:06.832Z,4.90
2019-01-04T12:11:35.222Z,6.17
2019-01-04T12:14:03.745Z,5.30
2019-01-04T12:16:32.014Z,4.23
2019-01-04T12:19:00.383Z,6.80
2019-01-04T12:21:28.667Z,6.30
2019-01-04T12:23:57.367Z,7.30
2019-01-04T12:26:25.689Z,7.13
2019-01-04T12:28:53.997Z,19.43
2019-01-04T12:31:22.241Z,7.27
2019-01-04T12:33:50.550Z,9.20
2019-01-04T12:36:18.816Z,7.50
2019-01-04T12:38:47.375Z,5.93
2019-01-04T12:41:15.893Z,8.07
2019-01-04T12:43:47.862Z,4.83
2019-01-04T12:46:14.270Z,6.93
2019-01-04T12:48:42.690Z,7.17
2019-01-04T12:51:11.275Z,6.20
2019-01-04T12:53:39.818Z,7.53
2019-01-04T12:56:08.450Z,8.23
2019-01-04T12:58:37.207Z,9.03
2019-01-04T13:01:05.567Z,10.00
2019-01-04T13:03:33.842Z,7.63
2019-01-04T13:06:02.137Z,8.17
2019-01-04T13:08:30.487Z,6.73
2019-01-04T13:10:58.865Z,7.73
2019-01-04T13:13:27.318Z,9.40
2019-01-04T13:15:55.660Z,7.67
2019-01-04T13:18:24.032Z,9.67
2019-01-04T13:20:52.330Z,8.87
2019-01-04T13:23:20.622Z,11.23
2019-01-04T13:25:49.102Z,8.10
2019-01-04T13:28:17.383Z,8.63
2019-01-04T13:30:45.829Z,6.30
2019-01-04T13:33:14.219Z,7.87
2019-01-04T13:35:42.554Z,6.40
2019-01-04T13:38:11.200Z,10.57
2019-01-04T13:40:39.469Z,4.83
2019-01-04T13:43:07.881Z,5.40
2019-01-04T13:45:36.216Z,5.40
2019-01-04T13:48:04.522Z,5.10
2019-01-04T13:50:32.862Z,6.23
2019-01-04T13:53:01.334Z,5.37
2019-01-04T13:55:29.633Z,6.53
2019-01-04T13:57:58.246Z,5.90
2019-01-04T14:00:26.657Z,5.47
2019-01-04T14:02:54.955Z,4.93
2019-01-04T14:05:23.423Z,6.07
2019-01-04T14:07:51.737Z,5.60
2019-01-04T14:10:21.025Z,8.20
2019-01-04T14:12:50.647Z,10.37
2019-01-04T14:15:19.006Z,6.50
2019-01-04T14:17:47.496Z,7.20
2019-01-04T14:20:15.990Z,9.20
2019-01-04T14:22:44.456Z,7.83
2019-01-04T14:25:12.829Z,8.70
2019-01-04T14:27:41.286Z,8.57
2019-01-04T14:30:11.185Z,6.97
2019-01-04T14:32:39.492Z,9.17
2019-01-04T14:35:08.926Z,8.33
2019-01-04T14:37:37.306Z,7.50
2019-01-04T14:40:08.857Z,6.23
2019-01-04T14:42:37.571Z,7.27
2019-01-04T14:45:07.484Z,6.93
2019-01-04T14:47:35.763Z,7.37
2019-01-04T14:50:06.846Z,7.47
2019-01-04T14:52:35.348Z,9.17
2019-01-04T14:55:03.749Z,8.80
2019-01-04T14:57:32.034Z,15.03
2019-01-04T15:00:00.394Z,10.80
2019-01-04T15:02:28.687Z,7.93
2019-01-04T15:04:57.070Z,8.53
2019-01-04T15:07:25.356Z,10.50
2019-01-04T15:09:53.832Z,14.13
2019-01-04T15:12:22.266Z,10.83
2019-01-04T15:14:50.624Z,10.13
2019-01-04T15:17:18.994Z,12.57
2019-01-04T15:19:48.850Z,11.00
2019-01-04T15:22:17.260Z,12.67
2019-01-04T15:24:45.652Z,11.73
2019-01-04T15:27:14.025Z,13.27
2019-01-04T15:29:42.674Z,14.13
2019-01-04T15:32:11.082Z,11.17
2019-01-04T15:34:39.739Z,11.17
2019-01-04T15:37:08.052Z,11.83
2019-01-04T15:39:36.570Z,9.27
2019-01-04T15:42:05.193Z,11.07
2019-01-04T15:44:34.061Z,12.00
2019-01-04T15:47:02.444Z,13.40
2019-01-04T15:49:30.884Z,11.20
2019-01-04T15:51:59.305Z,9.63
2019-01-04T15:54:27.598Z,11.37
2019-01-04T15:56:55.983Z,12.20
2019-01-04T15:59:24.520Z,10.07
2019-01-04T16:01:53.085Z,11.67
2019-01-04T16:04:21.499Z,10.40
2019-01-04T16:06:49.949Z,9.63
2019-01-04T16:09:18.632Z,11.10
2019-01-04T16:11:47.165Z,9.30
2019-01-04T16:14:15.453Z,10.50
2019-01-04T16:16:43.822Z,13.47
2019-01-04T16:19:12.184Z,13.63
2019-01-04T16:21:40.545Z,12.83
2019-01-04T16:24:09.025Z,12.40
2019-01-04T16:26:37.548Z,13.90
2019-01-04T16:29:05.982Z,11.90
2019-01-04T16:31:34.408Z,14.87
2019-01-04T16:34:02.907Z,10.97
2019-01-04T16:36:31.268Z,12.87
2019-01-04T16:38:59.577Z,13.58
2019-01-04T16:41:28.036Z,11.87
2019-01-04T16:43:57.402Z,13.53
2019-01-04T16:46:25.682Z,13.73
2019-01-04T16:48:54.212Z,12.40
2019-01-04T16:51:22.590Z,13.20
2019-01-04T16:53:51.486Z,11.90
2019-01-04T16:56:20.028Z,13.53
2019-01-04T16:58:48.577Z,12.53
2019-01-04T17:01:16.929Z,14.60
2019-01-04T17:03:45.365Z,11.87
2019-01-04T17:06:13.838Z,12.67
2019-01-04T17:08:42.232Z,25.07
2019-01-04T17:11:11.418Z,12.60
2019-01-04T17:13:40.518Z,11.63
2019-01-04T17:16:08.854Z,11.93
2019-01-04T17:18:37.226Z,9.87
2019-01-04T17:21:06.377Z,9.47
2019-01-04T17:23:34.734Z,10.80
2019-01-04T17:26:03.125Z,10.77
2019-01-04T17:28:31.583Z,10.70
2019-01-04T17:30:59.993Z,9.60
2019-01-04T17:33:28.311Z,11.03
2019-01-04T17:35:56.782Z,13.40
2019-01-04T17:38:25.129Z,10.60
2019-01-04T17:40:53.549Z,10.30
2019-01-04T17:43:22.000Z,10.20
2019-01-04T17:45:50.375Z,13.50
2019-01-04T17:48:18.648Z,14.40
2019-01-04T17:50:47.155Z,11.23
2019-01-04T17:53:15.647Z,12.87
2019-01-04T17:55:43.952Z,13.20
2019-01-04T17:58:12.330Z,11.90
2019-01-04T18:00:40.602Z,12.20
2019-01-04T18:03:09.194Z,13.17
2019-01-04T18:05:37.528Z,13.00
2019-01-04T18:08:06.015Z,12.20
2019-01-04T18:10:34.365Z,13.47
2019-01-04T18:13:02.841Z,12.80
2019-01-04T18:15:31.523Z,16.10
2019-01-04T18:17:59.906Z,15.30
2019-01-04T18:20:28.177Z,14.77
2019-01-04T18:22:56.649Z,12.30
2019-01-04T18:25:25.095Z,13.10
2019-01-04T18:27:54.252Z,12.30
2019-01-04T18:30:22.882Z,12.03
2019-01-04T18:32:51.310Z,13.77
2019-01-04T18:35:19.730Z,11.27
2019-01-04T18:37:48.057Z,11.17
2019-01-04T18:40:16.645Z,11.10
2019-01-04T18:42:44.938Z,10.67
2019-01-04T18:45:13.256Z,9.07
2019-01-04T18:47:41.528Z,15.00
2019-01-04T18:50:12.245Z,17.03
2019-01-04T18:52:40.643Z,9.43
2019-01-04T18:55:08.957Z,10.10
2019-01-04T18:57:37.298Z,12.10
2019-01-04T19:00:08.951Z,11.53
2019-01-04T19:02:37.379Z,10.67
2019-01-04T19:05:06.690Z,11.30
2019-01-04T19:07:34.995Z,9.77
2019-01-04T19:10:03.304Z,9.13
2019-01-04T19:12:31.734Z,9.87
2019-01-04T19:15:00.170Z,9.43
2019-01-04T19:17:28.844Z,9.20
2019-01-04T19:19:57.330Z,11.63
2019-01-04T19:22:25.623Z,9.73
2019-01-04T19:24:53.990Z,11.47
2019-01-04T19:27:22.743Z,9.53
2019-01-04T19:29:51.178Z,12.43
2019-01-04T19:32:19.538Z,10.03
2019-01-04T19:34:47.803Z,11.40
2019-01-04T19:37:16.123Z,13.80
2019-01-04T19:39:44.451Z,10.17
2019-01-04T19:42:13.223Z,11.63
2019-01-04T19:44:41.502Z,10.50
2019-01-04T19:47:09.851Z,11.63
2019-01-04T19:49:38.263Z,8.30
2019-01-04T19:52:06.772Z,8.50
2019-01-04T19:54:35.380Z,9.87
2019-01-04T19:57:04.509Z,8.97
2019-01-04T19:59:33.063Z,7.80
2019-01-04T20:02:01.420Z,8.90
2019-01-04T20:04:29.746Z,10.07
2019-01-04T20:07:35.250Z,8.83
2019-01-04T20:10:59.782Z,9.20
2019-01-04T20:13:54.760Z,8.43
2019-01-04T20:16:30.662Z,8.27
2019-01-04T20:19:03.548Z,10.20
2019-01-04T20:21:33.467Z,37.33
2019-01-04T20:24:06.423Z,15.17
2019-01-04T20:26:51.847Z,11.67
2019-01-04T20:29:21.853Z,10.97
2019-01-04T20:31:57.502Z,9.83
2019-01-04T20:34:27.633Z,10.67
2019-01-04T20:37:16.052Z,10.27
2019-01-04T20:39:49.054Z,12.93
2019-01-04T20:42:28.234Z,11.80
2019-01-04T20:45:14.641Z,10.60
2019-01-04T20:47:53.842Z,14.03
2019-01-04T20:50:40.299Z,12.83
2019-01-04T20:53:10.280Z,10.27
2019-01-04T20:55:58.784Z,10.20
2019-01-04T20:58:46.058Z,11.73
2019-01-04T21:01:16.007Z,11.93
2019-01-04T21:03:48.722Z,11.67
2019-01-04T21:06:32.448Z,10.83
2019-01-04T21:09:20.693Z,11.43
2019-01-04T21:11:56.593Z,13.37
2019-01-04T21:14:26.606Z,12.93
2019-01-04T21:17:08.455Z,12.50
2019-01-04T21:19:53.449Z,11.53
2019-01-04T21:22:23.631Z,11.43
2019-01-04T21:24:59.051Z,15.67
2019-01-04T21:27:29.070Z,12.03
2019-01-04T21:30:08.212Z,17.93
2019-01-04T21:32:44.728Z,13.83
2019-01-04T21:35:31.239Z,14.53
2019-01-04T21:38:04.403Z,14.40
2019-01-04T21:40:50.601Z,12.57
2019-01-04T21:43:29.858Z,14.97
2019-01-04T21:46:05.541Z,13.07
2019-01-04T21:48:38.079Z,11.73
2019-01-04T21:51:24.266Z,14.10
2019-01-04T21:53:57.290Z,14.07
2019-01-04T21:56:27.227Z,14.87
2019-01-04T21:59:13.580Z,12.67
2019-01-04T22:01:59.612Z,13.87
2019-01-04T22:04:29.581Z,13.47
2019-01-04T22:07:05.166Z,12.80
2019-01-04T22:09:35.167Z,15.30
2019-01-04T22:12:08.060Z,13.07
2019-01-04T22:14:40.537Z,13.40
2019-01-04T22:17:10.631Z,16.33
2019-01-04T22:19:43.273Z,13.97
2019-01-04T22:22:13.249Z,14.23
2019-01-04T22:24:49.015Z,16.70
2019-01-04T22:27:19.003Z,13.77
2019-01-04T22:29:58.093Z,13.80
2019-01-04T22:32:33.621Z,15.67
2019-01-04T22:35:18.604Z,15.83
2019-01-04T22:37:48.620Z,15.60
2019-01-04T22:40:31.157Z,15.27
2019-01-04T22:43:07.048Z,16.93
2019-01-04T22:45:53.457Z,19.47
2019-01-04T22:48:26.100Z,15.53
2019-01-04T22:51:08.270Z,14.00
2019-01-04T22:53:47.216Z,18.03
2019-01-04T22:56:35.331Z,12.13
2019-01-04T22:59:11.671Z,15.70
2019-01-04T23:01:56.809Z,15.93
2019-01-04T23:04:29.373Z,16.57
2019-01-04T23:06:59.390Z,18.63
2019-01-04T23:09:32.509Z,18.23
2019-01-04T23:12:07.318Z,18.40
2019-01-04T23:14:42.946Z,17.57
2019-01-04T23:17:12.996Z,18.87
2019-01-04T23:19:43.001Z,21.67
2019-01-04T23:22:28.237Z,17.53
2019-01-04T23:25:01.282Z,17.60
2019-01-04T23:27:49.506Z,19.27
2019-01-04T23:30:19.439Z,20.13
2019-01-04T23:32:51.962Z,18.63
2019-01-04T23:35:38.214Z,24.20
2019-01-04T23:38:08.241Z,21.57
2019-01-04T23:40:38.175Z,20.83
2019-01-04T23:43:22.863Z,20.97
2019-01-04T23:46:02.046Z,21.37
2019-01-04T23:48:48.178Z,22.13
2019-01-04T23:51:21.018Z,19.60
2019-01-04T23:53:59.891Z,19.07
2019-01-04T23:56:42.270Z,21.40
2019-01-04T23:59:12.260Z,20.93
